sensor_id;sensor_type;location;lat;lon;timestamp;P1;durP1;ratioP1;P2;durP2;ratioP2
44696;SDS011;57264;47.480;19.354;2023-03-23T00:02:23;11.23;;;6.57;;
44696;SDS011;57264;47.480;19.354;2023-03-23T00:04:50;8.65;;;6.30;;
44696;SDS011;57264;47.480;19.354;2023-03-23T00:07:16;10.23;;;7.57;;
44696;SDS011;57264;47.480;19.354;2023-03-23T00:09:46;11.38;;;7.60;;
44696;SDS011;57264;47.480;19.354;2023-03-23T00:12:18;10.97;;;6.67;;
44696;SDS011;57264;47.480;19.354;2023-03-23T00:14:45;10.73;;;7.82;;
44696;SDS011;57264;47.480;19.354;2023-03-23T00:17:10;11.83;;;7.93;;
44696;SDS011;57264;47.480;19.354;2023-03-23T00:19:39;14.85;;;8.90;;
44696;SDS011;57264;47.480;19.354;2023-03-23T00:24:40;13.80;;;7.60;;
44696;SDS011;57264;47.480;19.354;2023-03-23T00:27:07;12.38;;;8.20;;
44696;SDS011;57264;47.480;19.354;2023-03-23T00:29:34;10.98;;;7.18;;
44696;SDS011;57264;47.480;19.354;2023-03-23T00:31:59;11.38;;;7.65;;
44696;SDS011;57264;47.480;19.354;2023-03-23T00:34:27;11.45;;;7.60;;
44696;SDS011;57264;47.480;19.354;2023-03-23T00:36:57;10.32;;;7.70;;
44696;SDS011;57264;47.480;19.354;2023-03-23T00:39:24;15.63;;;8.48;;
44696;SDS011;57264;47.480;19.354;2023-03-23T00:41:52;11.90;;;8.45;;
44696;SDS011;57264;47.480;19.354;2023-03-23T00:44:19;11.90;;;8.85;;
44696;SDS011;57264;47.480;19.354;2023-03-23T00:46:49;14.13;;;8.40;;
44696;SDS011;57264;47.480;19.354;2023-03-23T00:49:16;18.15;;;9.48;;
44696;SDS011;57264;47.480;19.354;2023-03-23T00:51:43;14.52;;;8.55;;
44696;SDS011;57264;47.480;19.354;2023-03-23T00:54:09;15.60;;;9.03;;
44696;SDS011;57264;47.480;19.354;2023-03-23T00:56:36;14.77;;;9.63;;
44696;SDS011;57264;47.480;19.354;2023-03-23T00:59:02;14.60;;;9.60;;
44696;SDS011;57264;47.480;19.354;2023-03-23T01:04:58;16.65;;;11.10;;
44696;SDS011;57264;47.480;19.354;2023-03-23T01:07:23;14.73;;;9.63;;
44696;SDS011;57264;47.480;19.354;2023-03-23T01:09:49;15.57;;;9.97;;
44696;SDS011;57264;47.480;19.354;2023-03-23T01:12:18;14.98;;;9.23;;
44696;SDS011;57264;47.480;19.354;2023-03-23T01:14:44;15.07;;;9.83;;
44696;SDS011;57264;47.480;19.354;2023-03-23T01:17:10;16.02;;;11.18;;
44696;SDS011;57264;47.480;19.354;2023-03-23T01:19:35;15.17;;;9.60;;
44696;SDS011;57264;47.480;19.354;2023-03-23T01:22:02;14.68;;;9.43;;
44696;SDS011;57264;47.480;19.354;2023-03-23T01:24:28;14.93;;;9.37;;
44696;SDS011;57264;47.480;19.354;2023-03-23T01:26:53;14.80;;;9.70;;
44696;SDS011;57264;47.480;19.354;2023-03-23T01:29:19;14.63;;;8.90;;
44696;SDS011;57264;47.480;19.354;2023-03-23T01:31:44;13.80;;;9.10;;
44696;SDS011;57264;47.480;19.354;2023-03-23T01:34:10;15.80;;;9.67;;
44696;SDS011;57264;47.480;19.354;2023-03-23T01:36:35;17.13;;;9.87;;
44696;SDS011;57264;47.480;19.354;2023-03-23T01:39:02;18.60;;;10.07;;
44696;SDS011;57264;47.480;19.354;2023-03-23T01:41:29;14.50;;;10.13;;
44696;SDS011;57264;47.480;19.354;2023-03-23T01:46:30;14.80;;;9.85;;
44696;SDS011;57264;47.480;19.354;2023-03-23T01:48:59;13.88;;;8.98;;
44696;SDS011;57264;47.480;19.354;2023-03-23T01:54:25;15.35;;;9.50;;
44696;SDS011;57264;47.480;19.354;2023-03-23T01:56:56;19.02;;;10.95;;
44696;SDS011;57264;47.480;19.354;2023-03-23T01:59:43;17.65;;;10.88;;
44696;SDS011;57264;47.480;19.354;2023-03-23T02:02:15;16.33;;;11.20;;
44696;SDS011;57264;47.480;19.354;2023-03-23T02:04:41;19.15;;;10.45;;
44696;SDS011;57264;47.480;19.354;2023-03-23T02:07:08;15.93;;;11.02;;
44696;SDS011;57264;47.480;19.354;2023-03-23T02:09:34;15.63;;;10.38;;
44696;SDS011;57264;47.480;19.354;2023-03-23T02:12:00;15.23;;;9.80;;
44696;SDS011;57264;47.480;19.354;2023-03-23T02:14:27;15.20;;;9.77;;
44696;SDS011;57264;47.480;19.354;2023-03-23T02:19:58;16.08;;;9.10;;
44696;SDS011;57264;47.480;19.354;2023-03-23T02:36:42;16.33;;;9.48;;
44696;SDS011;57264;47.480;19.354;2023-03-23T02:39:23;13.18;;;9.50;;
44696;SDS011;57264;47.480;19.354;2023-03-23T02:41:56;15.10;;;10.10;;
44696;SDS011;57264;47.480;19.354;2023-03-23T02:44:28;14.55;;;10.20;;
44696;SDS011;57264;47.480;19.354;2023-03-23T02:46:56;15.25;;;9.73;;
44696;SDS011;57264;47.480;19.354;2023-03-23T02:49:25;13.50;;;9.18;;
44696;SDS011;57264;47.480;19.354;2023-03-23T02:51:55;16.60;;;9.73;;
44696;SDS011;57264;47.480;19.354;2023-03-23T02:54:23;14.32;;;9.77;;
44696;SDS011;57264;47.480;19.354;2023-03-23T02:56:51;13.35;;;10.00;;
44696;SDS011;57264;47.480;19.354;2023-03-23T02:59:20;15.80;;;9.82;;
44696;SDS011;57264;47.480;19.354;2023-03-23T03:01:47;12.80;;;9.10;;
44696;SDS011;57264;47.480;19.354;2023-03-23T03:04:19;12.98;;;9.27;;
44696;SDS011;57264;47.480;19.354;2023-03-23T03:12:07;13.55;;;8.98;;
44696;SDS011;57264;47.480;19.354;2023-03-23T03:17:44;12.75;;;8.50;;
44696;SDS011;57264;47.480;19.354;2023-03-23T03:20:32;11.88;;;8.40;;
44696;SDS011;57264;47.480;19.354;2023-03-23T03:23:03;12.43;;;7.95;;
44696;SDS011;57264;47.480;19.354;2023-03-23T03:25:32;13.73;;;8.65;;
44696;SDS011;57264;47.480;19.354;2023-03-23T03:27:59;15.38;;;9.05;;
44696;SDS011;57264;47.480;19.354;2023-03-23T03:30:26;12.60;;;8.03;;
44696;SDS011;57264;47.480;19.354;2023-03-23T03:32:57;14.57;;;8.43;;
44696;SDS011;57264;47.480;19.354;2023-03-23T03:35:28;13.02;;;8.82;;
44696;SDS011;57264;47.480;19.354;2023-03-23T03:37:56;11.57;;;8.20;;
44696;SDS011;57264;47.480;19.354;2023-03-23T03:40:29;11.48;;;7.65;;
44696;SDS011;57264;47.480;19.354;2023-03-23T03:42:55;10.83;;;7.50;;
44696;SDS011;57264;47.480;19.354;2023-03-23T03:45:20;10.47;;;7.53;;
44696;SDS011;57264;47.480;19.354;2023-03-23T03:47:46;10.60;;;7.60;;
44696;SDS011;57264;47.480;19.354;2023-03-23T03:50:11;9.63;;;7.57;;
44696;SDS011;57264;47.480;19.354;2023-03-23T03:52:37;13.20;;;7.03;;
44696;SDS011;57264;47.480;19.354;2023-03-23T03:55:04;13.53;;;7.80;;
44696;SDS011;57264;47.480;19.354;2023-03-23T03:57:32;15.15;;;7.47;;
44696;SDS011;57264;47.480;19.354;2023-03-23T03:59:58;9.50;;;7.45;;
44696;SDS011;57264;47.480;19.354;2023-03-23T04:02:23;9.43;;;7.07;;
44696;SDS011;57264;47.480;19.354;2023-03-23T04:04:49;15.17;;;7.40;;
44696;SDS011;57264;47.480;19.354;2023-03-23T04:07:17;9.55;;;7.35;;
44696;SDS011;57264;47.480;19.354;2023-03-23T04:09:43;9.83;;;7.00;;
44696;SDS011;57264;47.480;19.354;2023-03-23T04:12:12;8.75;;;6.95;;
44696;SDS011;57264;47.480;19.354;2023-03-23T04:14:38;10.77;;;8.00;;
44696;SDS011;57264;47.480;19.354;2023-03-23T04:17:03;12.13;;;7.17;;
44696;SDS011;57264;47.480;19.354;2023-03-23T04:19:29;9.53;;;6.93;;
44696;SDS011;57264;47.480;19.354;2023-03-23T04:21:58;10.90;;;7.65;;
44696;SDS011;57264;47.480;19.354;2023-03-23T04:24:24;12.23;;;6.95;;
44696;SDS011;57264;47.480;19.354;2023-03-23T04:26:50;9.53;;;7.60;;
44696;SDS011;57264;47.480;19.354;2023-03-23T04:29:19;14.05;;;7.85;;
44696;SDS011;57264;47.480;19.354;2023-03-23T04:31:45;10.63;;;7.67;;
44696;SDS011;57264;47.480;19.354;2023-03-23T04:34:11;12.37;;;8.43;;
44696;SDS011;57264;47.480;19.354;2023-03-23T04:36:38;14.52;;;8.57;;
44696;SDS011;57264;47.480;19.354;2023-03-23T04:39:05;16.70;;;7.88;;
44696;SDS011;57264;47.480;19.354;2023-03-23T04:41:34;13.98;;;7.75;;
44696;SDS011;57264;47.480;19.354;2023-03-23T04:44:01;12.60;;;8.60;;
44696;SDS011;57264;47.480;19.354;2023-03-23T04:46:29;10.93;;;7.93;;
44696;SDS011;57264;47.480;19.354;2023-03-23T04:48:55;11.32;;;7.82;;
44696;SDS011;57264;47.480;19.354;2023-03-23T04:51:23;12.45;;;8.20;;
44696;SDS011;57264;47.480;19.354;2023-03-23T04:53:51;24.48;;;8.60;;
44696;SDS011;57264;47.480;19.354;2023-03-23T04:56:17;21.00;;;7.97;;
44696;SDS011;57264;47.480;19.354;2023-03-23T04:58:43;19.10;;;8.93;;
44696;SDS011;57264;47.480;19.354;2023-03-23T05:01:10;13.50;;;6.53;;
44696;SDS011;57264;47.480;19.354;2023-03-23T05:03:39;11.38;;;7.00;;
44696;SDS011;57264;47.480;19.354;2023-03-23T05:06:05;15.50;;;7.80;;
44696;SDS011;57264;47.480;19.354;2023-03-23T05:08:31;14.77;;;7.63;;
44696;SDS011;57264;47.480;19.354;2023-03-23T05:10:58;13.25;;;8.00;;
44696;SDS011;57264;47.480;19.354;2023-03-23T05:13:25;13.23;;;7.65;;
44696;SDS011;57264;47.480;19.354;2023-03-23T05:15:52;10.75;;;7.35;;
44696;SDS011;57264;47.480;19.354;2023-03-23T05:18:18;13.63;;;7.93;;
44696;SDS011;57264;47.480;19.354;2023-03-23T05:20:45;10.95;;;7.55;;
44696;SDS011;57264;47.480;19.354;2023-03-23T05:23:11;10.02;;;7.30;;
44696;SDS011;57264;47.480;19.354;2023-03-23T05:25:38;11.85;;;7.18;;
44696;SDS011;57264;47.480;19.354;2023-03-23T05:28:09;15.45;;;7.60;;
44696;SDS011;57264;47.480;19.354;2023-03-23T05:30:37;10.63;;;7.95;;
44696;SDS011;57264;47.480;19.354;2023-03-23T05:33:04;12.18;;;7.65;;
44696;SDS011;57264;47.480;19.354;2023-03-23T05:35:30;10.03;;;7.50;;
44696;SDS011;57264;47.480;19.354;2023-03-23T05:37:56;11.00;;;7.63;;
44696;SDS011;57264;47.480;19.354;2023-03-23T05:40:25;11.27;;;7.75;;
44696;SDS011;57264;47.480;19.354;2023-03-23T05:42:53;11.38;;;8.23;;
44696;SDS011;57264;47.480;19.354;2023-03-23T05:45:21;10.57;;;7.75;;
44696;SDS011;57264;47.480;19.354;2023-03-23T05:47:48;12.57;;;8.95;;
44696;SDS011;57264;47.480;19.354;2023-03-23T05:50:13;10.83;;;8.20;;
44696;SDS011;57264;47.480;19.354;2023-03-23T05:52:39;19.70;;;8.18;;
44696;SDS011;57264;47.480;19.354;2023-03-23T05:55:05;20.30;;;8.40;;
44696;SDS011;57264;47.480;19.354;2023-03-23T05:57:32;14.15;;;8.25;;
44696;SDS011;57264;47.480;19.354;2023-03-23T05:59:58;13.97;;;8.37;;
44696;SDS011;57264;47.480;19.354;2023-03-23T06:02:24;16.97;;;7.87;;
44696;SDS011;57264;47.480;19.354;2023-03-23T06:04:54;16.67;;;8.13;;
44696;SDS011;57264;47.480;19.354;2023-03-23T06:07:25;11.40;;;7.57;;
44696;SDS011;57264;47.480;19.354;2023-03-23T06:09:51;10.73;;;7.10;;
44696;SDS011;57264;47.480;19.354;2023-03-23T06:12:18;10.65;;;7.20;;
44696;SDS011;57264;47.480;19.354;2023-03-23T06:14:48;8.98;;;6.53;;
44696;SDS011;57264;47.480;19.354;2023-03-23T06:17:14;18.00;;;7.28;;
44696;SDS011;57264;47.480;19.354;2023-03-23T06:19:42;15.07;;;8.23;;
44696;SDS011;57264;47.480;19.354;2023-03-23T06:34:39;15.70;;;7.27;;
44696;SDS011;57264;47.480;19.354;2023-03-23T06:37:08;14.10;;;7.10;;
44696;SDS011;57264;47.480;19.354;2023-03-23T06:39:34;10.50;;;7.37;;
44696;SDS011;57264;47.480;19.354;2023-03-23T06:42:02;8.07;;;6.77;;
44696;SDS011;57264;47.480;19.354;2023-03-23T06:44:27;10.80;;;7.63;;
44696;SDS011;57264;47.480;19.354;2023-03-23T06:46:53;10.90;;;7.33;;
44696;SDS011;57264;47.480;19.354;2023-03-23T06:49:19;15.43;;;7.73;;
44696;SDS011;57264;47.480;19.354;2023-03-23T06:51:44;10.77;;;7.50;;
44696;SDS011;57264;47.480;19.354;2023-03-23T06:54:10;11.07;;;7.60;;
44696;SDS011;57264;47.480;19.354;2023-03-23T06:56:36;9.40;;;7.70;;
44696;SDS011;57264;47.480;19.354;2023-03-23T06:59:01;10.40;;;7.73;;
44696;SDS011;57264;47.480;19.354;2023-03-23T07:01:28;8.90;;;7.50;;
44696;SDS011;57264;47.480;19.354;2023-03-23T07:03:54;20.30;;;8.60;;
44696;SDS011;57264;47.480;19.354;2023-03-23T07:06:20;10.47;;;7.63;;
44696;SDS011;57264;47.480;19.354;2023-03-23T07:08:46;9.23;;;7.47;;
44696;SDS011;57264;47.480;19.354;2023-03-23T07:11:12;12.40;;;8.27;;
44696;SDS011;57264;47.480;19.354;2023-03-23T07:13:38;16.83;;;8.30;;
44696;SDS011;57264;47.480;19.354;2023-03-23T07:16:07;13.50;;;8.00;;
44696;SDS011;57264;47.480;19.354;2023-03-23T07:18:33;14.97;;;8.30;;
44696;SDS011;57264;47.480;19.354;2023-03-23T07:20:59;10.43;;;7.73;;
44696;SDS011;57264;47.480;19.354;2023-03-23T07:23:25;14.83;;;8.07;;
44696;SDS011;57264;47.480;19.354;2023-03-23T07:25:50;13.10;;;7.77;;
44696;SDS011;57264;47.480;19.354;2023-03-23T07:28:17;10.20;;;8.23;;
44696;SDS011;57264;47.480;19.354;2023-03-23T07:30:43;11.93;;;8.80;;
44696;SDS011;57264;47.480;19.354;2023-03-23T07:33:09;12.17;;;8.23;;
44696;SDS011;57264;47.480;19.354;2023-03-23T07:35:35;11.37;;;8.07;;
44696;SDS011;57264;47.480;19.354;2023-03-23T07:38:01;21.53;;;8.07;;
44696;SDS011;57264;47.480;19.354;2023-03-23T07:40:29;10.53;;;7.70;;
44696;SDS011;57264;47.480;19.354;2023-03-23T07:42:58;11.53;;;7.83;;
44696;SDS011;57264;47.480;19.354;2023-03-23T07:45:25;9.10;;;7.77;;
44696;SDS011;57264;47.480;19.354;2023-03-23T07:47:51;9.10;;;7.83;;
44696;SDS011;57264;47.480;19.354;2023-03-23T07:50:18;10.93;;;7.83;;
44696;SDS011;57264;47.480;19.354;2023-03-23T07:52:47;9.13;;;7.60;;
44696;SDS011;57264;47.480;19.354;2023-03-23T07:55:13;12.30;;;8.63;;
44696;SDS011;57264;47.480;19.354;2023-03-23T07:57:42;9.57;;;8.13;;
44696;SDS011;57264;47.480;19.354;2023-03-23T08:00:09;10.90;;;7.83;;
44696;SDS011;57264;47.480;19.354;2023-03-23T08:02:44;9.50;;;8.43;;
44696;SDS011;57264;47.480;19.354;2023-03-23T08:05:14;9.47;;;7.47;;
44696;SDS011;57264;47.480;19.354;2023-03-23T08:07:41;9.33;;;7.83;;
44696;SDS011;57264;47.480;19.354;2023-03-23T08:10:08;13.07;;;8.83;;
44696;SDS011;57264;47.480;19.354;2023-03-23T08:12:41;19.50;;;9.87;;
44696;SDS011;57264;47.480;19.354;2023-03-23T08:15:08;13.90;;;8.20;;
44696;SDS011;57264;47.480;19.354;2023-03-23T08:17:37;31.50;;;9.57;;
44696;SDS011;57264;47.480;19.354;2023-03-23T08:20:04;9.60;;;7.30;;
44696;SDS011;57264;47.480;19.354;2023-03-23T08:22:34;7.97;;;6.67;;
44696;SDS011;57264;47.480;19.354;2023-03-23T08:25:01;7.73;;;5.80;;
44696;SDS011;57264;47.480;19.354;2023-03-23T08:27:28;8.40;;;6.17;;
44696;SDS011;57264;47.480;19.354;2023-03-23T08:29:54;8.93;;;5.90;;
44696;SDS011;57264;47.480;19.354;2023-03-23T08:32:20;7.10;;;6.03;;
44696;SDS011;57264;47.480;19.354;2023-03-23T08:34:45;8.97;;;6.10;;
44696;SDS011;57264;47.480;19.354;2023-03-23T08:37:11;10.40;;;6.67;;
44696;SDS011;57264;47.480;19.354;2023-03-23T08:39:37;9.13;;;6.00;;
44696;SDS011;57264;47.480;19.354;2023-03-23T08:42:02;15.90;;;6.17;;
44696;SDS011;57264;47.480;19.354;2023-03-23T08:44:28;10.40;;;5.30;;
44696;SDS011;57264;47.480;19.354;2023-03-23T08:46:54;180.60;;;16.10;;
44696;SDS011;57264;47.480;19.354;2023-03-23T08:49:22;15.77;;;5.50;;
44696;SDS011;57264;47.480;19.354;2023-03-23T08:51:48;6.93;;;5.77;;
44696;SDS011;57264;47.480;19.354;2023-03-23T08:54:14;6.80;;;4.77;;
44696;SDS011;57264;47.480;19.354;2023-03-23T08:56:40;9.37;;;5.70;;
44696;SDS011;57264;47.480;19.354;2023-03-23T08:59:06;8.10;;;5.00;;
44696;SDS011;57264;47.480;19.354;2023-03-23T09:01:32;9.20;;;5.30;;
44696;SDS011;57264;47.480;19.354;2023-03-23T09:03:58;8.93;;;5.33;;
44696;SDS011;57264;47.480;19.354;2023-03-23T09:06:24;22.83;;;6.33;;
44696;SDS011;57264;47.480;19.354;2023-03-23T09:08:50;7.37;;;5.30;;
44696;SDS011;57264;47.480;19.354;2023-03-23T09:11:17;8.87;;;6.17;;
44696;SDS011;57264;47.480;19.354;2023-03-23T09:13:42;8.70;;;5.60;;
44696;SDS011;57264;47.480;19.354;2023-03-23T09:16:08;7.90;;;5.03;;
44696;SDS011;57264;47.480;19.354;2023-03-23T09:18:35;8.73;;;4.87;;
44696;SDS011;57264;47.480;19.354;2023-03-23T09:21:02;35.63;;;6.83;;
44696;SDS011;57264;47.480;19.354;2023-03-23T09:23:28;8.63;;;5.53;;
44696;SDS011;57264;47.480;19.354;2023-03-23T09:25:55;18.13;;;5.27;;
44696;SDS011;57264;47.480;19.354;2023-03-23T09:28:20;7.73;;;5.00;;
44696;SDS011;57264;47.480;19.354;2023-03-23T09:30:46;6.33;;;4.33;;
44696;SDS011;57264;47.480;19.354;2023-03-23T09:33:12;6.17;;;4.47;;
44696;SDS011;57264;47.480;19.354;2023-03-23T09:35:39;6.40;;;4.27;;
44696;SDS011;57264;47.480;19.354;2023-03-23T09:38:07;4.07;;;3.60;;
44696;SDS011;57264;47.480;19.354;2023-03-23T09:46:34;5.83;;;3.27;;
44696;SDS011;57264;47.480;19.354;2023-03-23T09:49:05;17.30;;;3.40;;
44696;SDS011;57264;47.480;19.354;2023-03-23T09:54:27;4.20;;;3.20;;
44696;SDS011;57264;47.480;19.354;2023-03-23T09:56:51;3.80;;;3.00;;
44696;SDS011;57264;47.480;19.354;2023-03-23T10:02:28;3.13;;;2.60;;
44696;SDS011;57264;47.480;19.354;2023-03-23T10:04:56;7.47;;;2.25;;
44696;SDS011;57264;47.480;19.354;2023-03-23T10:07:37;4.33;;;2.63;;
44696;SDS011;57264;47.480;19.354;2023-03-23T10:10:03;4.30;;;2.33;;
44696;SDS011;57264;47.480;19.354;2023-03-23T10:12:41;2.73;;;2.10;;
44696;SDS011;57264;47.480;19.354;2023-03-23T10:23:13;3.03;;;2.13;;
44696;SDS011;57264;47.480;19.354;2023-03-23T10:25:50;3.27;;;1.87;;
44696;SDS011;57264;47.480;19.354;2023-03-23T10:28:41;5.63;;;1.70;;
44696;SDS011;57264;47.480;19.354;2023-03-23T10:31:11;3.03;;;1.70;;
44696;SDS011;57264;47.480;19.354;2023-03-23T10:39:26;2.97;;;1.50;;
44696;SDS011;57264;47.480;19.354;2023-03-23T10:41:56;3.43;;;1.60;;
44696;SDS011;57264;47.480;19.354;2023-03-23T10:44:27;4.80;;;1.60;;
44696;SDS011;57264;47.480;19.354;2023-03-23T10:46:59;5.80;;;1.77;;
44696;SDS011;57264;47.480;19.354;2023-03-23T10:57:41;3.53;;;1.40;;
44696;SDS011;57264;47.480;19.354;2023-03-23T11:00:19;6.30;;;1.70;;
44696;SDS011;57264;47.480;19.354;2023-03-23T11:05:23;3.93;;;1.07;;
44696;SDS011;57264;47.480;19.354;2023-03-23T11:07:54;2.13;;;1.20;;
44696;SDS011;57264;47.480;19.354;2023-03-23T11:10:26;2.17;;;1.40;;
44696;SDS011;57264;47.480;19.354;2023-03-23T11:12:59;3.53;;;1.50;;
44696;SDS011;57264;47.480;19.354;2023-03-23T11:18:04;4.43;;;1.60;;
44696;SDS011;57264;47.480;19.354;2023-03-23T11:20:42;4.70;;;1.40;;
44696;SDS011;57264;47.480;19.354;2023-03-23T11:25:50;24.03;;;3.70;;
44696;SDS011;57264;47.480;19.354;2023-03-23T11:28:19;3.77;;;1.63;;
44696;SDS011;57264;47.480;19.354;2023-03-23T11:30:45;2.43;;;1.20;;
44696;SDS011;57264;47.480;19.354;2023-03-23T11:33:11;1.53;;;1.43;;
44696;SDS011;57264;47.480;19.354;2023-03-23T11:35:42;5.87;;;1.60;;
44696;SDS011;57264;47.480;19.354;2023-03-23T11:38:16;2.07;;;1.30;;
44696;SDS011;57264;47.480;19.354;2023-03-23T11:40:48;2.83;;;1.50;;
44696;SDS011;57264;47.480;19.354;2023-03-23T11:56:52;3.80;;;1.73;;
44696;SDS011;57264;47.480;19.354;2023-03-23T11:59:32;3.27;;;1.60;;
44696;SDS011;57264;47.480;19.354;2023-03-23T12:07:50;3.53;;;1.40;;
44696;SDS011;57264;47.480;19.354;2023-03-23T12:13:39;3.17;;;1.50;;
44696;SDS011;57264;47.480;19.354;2023-03-23T12:25:03;7.47;;;1.92;;
44696;SDS011;57264;47.480;19.354;2023-03-23T12:58:46;7.67;;;2.73;;
44696;SDS011;57264;47.480;19.354;2023-03-23T13:01:18;2.80;;;1.90;;
44696;SDS011;57264;47.480;19.354;2023-03-23T13:06:39;4.43;;;2.00;;
44696;SDS011;57264;47.480;19.354;2023-03-23T13:09:11;9.57;;;2.77;;
44696;SDS011;57264;47.480;19.354;2023-03-23T13:11:39;3.33;;;2.00;;
44696;SDS011;57264;47.480;19.354;2023-03-23T13:14:12;2.75;;;2.33;;
44696;SDS011;57264;47.480;19.354;2023-03-23T13:17:30;1.60;;;1.40;;
44696;SDS011;57264;47.480;19.354;2023-03-23T13:20:04;8.67;;;2.00;;
44696;SDS011;57264;47.480;19.354;2023-03-23T13:22:41;49.70;;;4.97;;
44696;SDS011;57264;47.480;19.354;2023-03-23T13:25:25;2.30;;;1.70;;
44696;SDS011;57264;47.480;19.354;2023-03-23T13:30:55;4.50;;;2.10;;
44696;SDS011;57264;47.480;19.354;2023-03-23T13:33:22;15.60;;;2.60;;
44696;SDS011;57264;47.480;19.354;2023-03-23T13:35:48;10.43;;;2.20;;
44696;SDS011;57264;47.480;19.354;2023-03-23T13:38:25;4.67;;;1.90;;
44696;SDS011;57264;47.480;19.354;2023-03-23T13:40:53;2.67;;;1.70;;
44696;SDS011;57264;47.480;19.354;2023-03-23T13:46:10;22.20;;;2.87;;
44696;SDS011;57264;47.480;19.354;2023-03-23T13:48:46;39.17;;;4.93;;
44696;SDS011;57264;47.480;19.354;2023-03-23T13:56:50;5.23;;;2.00;;
44696;SDS011;57264;47.480;19.354;2023-03-23T13:59:30;30.40;;;3.13;;
44696;SDS011;57264;47.480;19.354;2023-03-23T14:04:52;2.80;;;1.70;;
44696;SDS011;57264;47.480;19.354;2023-03-23T14:07:19;6.00;;;2.40;;
44696;SDS011;57264;47.480;19.354;2023-03-23T14:09:45;141.83;;;9.07;;
44696;SDS011;57264;47.480;19.354;2023-03-23T14:12:30;9.07;;;1.90;;
44696;SDS011;57264;47.480;19.354;2023-03-23T14:14:57;2.70;;;1.73;;
44696;SDS011;57264;47.480;19.354;2023-03-23T14:17:30;4.20;;;1.90;;
44696;SDS011;57264;47.480;19.354;2023-03-23T14:19:59;3.80;;;1.80;;
44696;SDS011;57264;47.480;19.354;2023-03-23T14:22:27;4.73;;;1.77;;
44696;SDS011;57264;47.480;19.354;2023-03-23T14:25:01;4.15;;;1.73;;
44696;SDS011;57264;47.480;19.354;2023-03-23T14:30:17;5.60;;;1.93;;
44696;SDS011;57264;47.480;19.354;2023-03-23T14:32:47;31.38;;;3.05;;
44696;SDS011;57264;47.480;19.354;2023-03-23T14:37:54;3.43;;;1.53;;
44696;SDS011;57264;47.480;19.354;2023-03-23T14:40:21;3.63;;;2.00;;
44696;SDS011;57264;47.480;19.354;2023-03-23T14:42:47;3.77;;;1.70;;
44696;SDS011;57264;47.480;19.354;2023-03-23T14:45:17;3.70;;;1.47;;
44696;SDS011;57264;47.480;19.354;2023-03-23T14:47:54;1.90;;;1.60;;
44696;SDS011;57264;47.480;19.354;2023-03-23T14:58:34;4.47;;;1.85;;
44696;SDS011;57264;47.480;19.354;2023-03-23T15:03:51;20.33;;;2.30;;
44696;SDS011;57264;47.480;19.354;2023-03-23T15:06:21;6.77;;;1.73;;
44696;SDS011;57264;47.480;19.354;2023-03-23T15:08:48;3.70;;;1.67;;
44696;SDS011;57264;47.480;19.354;2023-03-23T15:13:43;4.77;;;1.53;;
44696;SDS011;57264;47.480;19.354;2023-03-23T15:16:29;6.37;;;1.60;;
44696;SDS011;57264;47.480;19.354;2023-03-23T15:19:06;92.43;;;7.23;;
44696;SDS011;57264;47.480;19.354;2023-03-23T15:21:55;10.70;;;1.90;;
44696;SDS011;57264;47.480;19.354;2023-03-23T15:24:26;4.40;;;1.80;;
44696;SDS011;57264;47.480;19.354;2023-03-23T15:27:10;1.50;;;1.40;;
44696;SDS011;57264;47.480;19.354;2023-03-23T15:29:49;5.90;;;1.30;;
44696;SDS011;57264;47.480;19.354;2023-03-23T15:32:22;3.73;;;1.20;;
44696;SDS011;57264;47.480;19.354;2023-03-23T15:34:50;3.80;;;1.10;;
44696;SDS011;57264;47.480;19.354;2023-03-23T15:37:21;3.93;;;1.20;;
44696;SDS011;57264;47.480;19.354;2023-03-23T15:39:51;5.33;;;1.10;;
44696;SDS011;57264;47.480;19.354;2023-03-23T15:42:24;8.30;;;1.30;;
44696;SDS011;57264;47.480;19.354;2023-03-23T15:48:09;3.23;;;1.30;;
44696;SDS011;57264;47.480;19.354;2023-03-23T15:52:51;3.40;;;1.40;;
44696;SDS011;57264;47.480;19.354;2023-03-23T15:55:34;2.43;;;1.60;;
44696;SDS011;57264;47.480;19.354;2023-03-23T15:58:07;2.80;;;1.30;;
44696;SDS011;57264;47.480;19.354;2023-03-23T16:00:38;8.17;;;1.50;;
44696;SDS011;57264;47.480;19.354;2023-03-23T16:03:06;41.37;;;3.30;;
44696;SDS011;57264;47.480;19.354;2023-03-23T16:05:35;5.30;;;1.60;;
44696;SDS011;57264;47.480;19.354;2023-03-23T16:08:01;3.83;;;1.57;;
44696;SDS011;57264;47.480;19.354;2023-03-23T16:10:27;3.03;;;1.60;;
44696;SDS011;57264;47.480;19.354;2023-03-23T16:12:53;8.13;;;1.47;;
44696;SDS011;57264;47.480;19.354;2023-03-23T16:15:18;3.37;;;1.53;;
44696;SDS011;57264;47.480;19.354;2023-03-23T16:17:44;10.67;;;1.60;;
44696;SDS011;57264;47.480;19.354;2023-03-23T16:20:14;5.13;;;1.60;;
44696;SDS011;57264;47.480;19.354;2023-03-23T16:22:41;3.33;;;1.10;;
44696;SDS011;57264;47.480;19.354;2023-03-23T16:25:08;6.00;;;1.93;;
44696;SDS011;57264;47.480;19.354;2023-03-23T16:27:34;4.87;;;1.40;;
44696;SDS011;57264;47.480;19.354;2023-03-23T16:30:00;3.03;;;1.30;;
44696;SDS011;57264;47.480;19.354;2023-03-23T16:32:28;4.43;;;1.60;;
44696;SDS011;57264;47.480;19.354;2023-03-23T16:34:53;8.17;;;2.10;;
44696;SDS011;57264;47.480;19.354;2023-03-23T16:37:19;7.73;;;2.27;;
44696;SDS011;57264;47.480;19.354;2023-03-23T16:39:45;5.70;;;1.73;;
44696;SDS011;57264;47.480;19.354;2023-03-23T16:42:11;10.23;;;1.70;;
44696;SDS011;57264;47.480;19.354;2023-03-23T16:44:37;5.50;;;1.70;;
44696;SDS011;57264;47.480;19.354;2023-03-23T16:47:02;5.23;;;2.53;;
44696;SDS011;57264;47.480;19.354;2023-03-23T16:49:28;7.00;;;1.70;;
44696;SDS011;57264;47.480;19.354;2023-03-23T16:51:53;4.53;;;1.97;;
44696;SDS011;57264;47.480;19.354;2023-03-23T16:54:19;9.20;;;2.33;;
44696;SDS011;57264;47.480;19.354;2023-03-23T16:56:45;3.83;;;1.93;;
44696;SDS011;57264;47.480;19.354;2023-03-23T16:59:12;9.37;;;2.30;;
44696;SDS011;57264;47.480;19.354;2023-03-23T17:01:38;18.23;;;3.17;;
44696;SDS011;57264;47.480;19.354;2023-03-23T17:04:05;8.60;;;2.40;;
44696;SDS011;57264;47.480;19.354;2023-03-23T17:06:31;13.83;;;2.97;;
44696;SDS011;57264;47.480;19.354;2023-03-23T17:08:57;12.53;;;2.70;;
44696;SDS011;57264;47.480;19.354;2023-03-23T17:11:22;11.33;;;2.53;;
44696;SDS011;57264;47.480;19.354;2023-03-23T17:13:48;11.60;;;2.77;;
44696;SDS011;57264;47.480;19.354;2023-03-23T17:16:14;11.37;;;2.73;;
44696;SDS011;57264;47.480;19.354;2023-03-23T17:18:39;13.70;;;2.60;;
44696;SDS011;57264;47.480;19.354;2023-03-23T17:21:05;11.87;;;2.87;;
44696;SDS011;57264;47.480;19.354;2023-03-23T17:23:31;18.53;;;4.80;;
44696;SDS011;57264;47.480;19.354;2023-03-23T17:25:57;8.85;;;2.92;;
44696;SDS011;57264;47.480;19.354;2023-03-23T17:28:22;12.27;;;3.63;;
44696;SDS011;57264;47.480;19.354;2023-03-23T17:30:48;13.97;;;5.07;;
44696;SDS011;57264;47.480;19.354;2023-03-23T17:33:16;12.93;;;4.68;;
44696;SDS011;57264;47.480;19.354;2023-03-23T17:35:44;17.40;;;4.97;;
44696;SDS011;57264;47.480;19.354;2023-03-23T17:38:10;12.70;;;5.00;;
44696;SDS011;57264;47.480;19.354;2023-03-23T17:40:36;7.90;;;4.10;;
44696;SDS011;57264;47.480;19.354;2023-03-23T17:43:02;15.13;;;5.60;;
44696;SDS011;57264;47.480;19.354;2023-03-23T17:45:28;14.35;;;4.75;;
44696;SDS011;57264;47.480;19.354;2023-03-23T17:47:53;19.13;;;8.23;;
44696;SDS011;57264;47.480;19.354;2023-03-23T17:50:19;14.17;;;6.03;;